Time;durP1;ratioP1;P1;durP2;ratioP2;P2;SDS_P1;SDS_P2;PMS_P1;PMS_P2;Temp;Humidity;BMP_temperature;BMP_pressure;BME280_temperature;BME280_humidity;BME280_pressure;Samples;Min_cycle;Max_cycle;Signal;HPM_P1;HPM_P2
2021/06/03 00:01:17;;;;;;;;;11.00;9.00;;;;;;;;3567487;39;113636;-69
2021/06/03 00:03:43;;;;;;;;;5.50;5.50;;;;;;;;3568336;39;112515;-69
2021/06/03 00:06:10;;;;;;;;;7.25;7.25;;;;;;;;3570633;39;113178;-69
2021/06/03 00:08:36;;;;;;;;;6.25;6.25;;;;;;;;3572286;39;112295;-70
2021/06/03 00:11:04;;;;;;;;;8.25;7.75;;;;;;;;3570257;39;113417;-70
2021/06/03 00:13:31;;;;;;;;;6.75;6.75;;;;;;;;3570112;39;113453;-69
2021/06/03 00:16:00;;;;;;;;;8.25;8.00;;;;;;;;3569485;39;111929;-69
2021/06/03 00:18:26;;;;;;;;;7.75;7.75;;;;;;;;3567937;39;113307;-69
2021/06/03 00:20:53;;;;;;;;;7.00;7.00;;;;;;;;3572001;39;113890;-69
2021/06/03 00:23:19;;;;;;;;;8.75;7.75;;;;;;;;3569758;39;111976;-70
2021/06/03 00:25:45;;;;;;;;;8.00;7.00;;;;;;;;3567753;39;113791;-70
2021/06/03 00:28:11;;;;;;;;;10.00;9.75;;;;;;;;3574457;39;113929;-70
2021/06/03 00:30:37;;;;;;;;;8.50;8.50;;;;;;;;3570208;39;113216;-69
2021/06/03 00:33:05;;;;;;;;;9.25;9.00;;;;;;;;3568019;39;113871;-70
2021/06/03 00:35:31;;;;;;;;;9.25;9.00;;;;;;;;3568600;39;111882;-70
2021/06/03 00:37:57;;;;;;;;;9.00;9.00;;;;;;;;3569702;39;113440;-70
2021/06/03 00:40:23;;;;;;;;;8.50;8.50;;;;;;;;3568602;39;114482;-70
2021/06/03 00:42:49;;;;;;;;;9.00;9.00;;;;;;;;3567643;39;112000;-70
2021/06/03 00:45:17;;;;;;;;;10.25;9.25;;;;;;;;3572000;39;113579;-70
2021/06/03 00:47:43;;;;;;;;;9.00;9.00;;;;;;;;3569535;39;113984;-70
2021/06/03 00:50:12;;;;;;;;;9.25;9.25;;;;;;;;3572272;39;112059;-70
2021/06/03 00:52:38;;;;;;;;;9.25;9.00;;;;;;;;3569421;39;113956;-70
2021/06/03 00:55:05;;;;;;;;;10.00;9.00;;;;;;;;3568433;39;111943;-69
2021/06/03 00:57:31;;;;;;;;;9.00;9.00;;;;;;;;3572006;39;113397;-70
2021/06/03 00:59:58;;;;;;;;;9.25;8.00;;;;;;;;3567640;39;113160;-70
2021/06/03 01:02:24;;;;;;;;;9.00;8.75;;;;;;;;3571943;39;111966;-70
2021/06/03 01:04:50;;;;;;;;;7.75;7.75;;;;;;;;3566375;39;112754;-70
2021/06/03 01:07:17;;;;;;;;;9.00;9.00;;;;;;;;3569164;39;113713;-69
2021/06/03 01:09:49;;;;;;;;;11.25;8.50;;;;;;;;3569796;39;111959;-70
2021/06/03 01:12:19;;;;;;;;;8.50;8.50;;;;;;;;3573863;39;112831;-69
2021/06/03 01:14:49;;;;;;;;;9.50;9.50;;;;;;;;3571738;39;112305;-69
2021/06/03 01:17:16;;;;;;;;;10.50;9.75;;;;;;;;3571719;39;112985;-69
2021/06/03 01:19:44;;;;;;;;;9.00;8.00;;;;;;;;3565566;39;112865;-70
2021/06/03 01:22:11;;;;;;;;;7.50;6.75;;;;;;;;3569588;39;111767;-70
2021/06/03 01:24:40;;;;;;;;;7.75;7.75;;;;;;;;3571637;39;113050;-71
2021/06/03 01:27:07;;;;;;;;;8.00;8.00;;;;;;;;3567116;39;113790;-70
2021/06/03 01:29:39;;;;;;;;;7.25;7.25;;;;;;;;3569693;39;111999;-69
2021/06/03 01:32:06;;;;;;;;;9.00;9.00;;;;;;;;3567764;39;113671;-69
2021/06/03 01:34:33;;;;;;;;;7.00;7.00;;;;;;;;3573819;39;111864;-69
2021/06/03 01:36:59;;;;;;;;;7.00;7.00;;;;;;;;3569537;39;113201;-70
2021/06/03 01:39:26;;;;;;;;;8.00;8.00;;;;;;;;3569644;39;114327;-70
2021/06/03 01:41:54;;;;;;;;;9.00;9.00;;;;;;;;3568844;39;112052;-69
2021/06/03 01:44:20;;;;;;;;;8.00;8.00;;;;;;;;3570612;39;113296;-71
2021/06/03 01:46:46;;;;;;;;;8.50;8.50;;;;;;;;3570007;39;114171;-71
2021/06/03 01:49:12;;;;;;;;;8.00;8.00;;;;;;;;3568820;39;111906;-71
2021/06/03 01:51:39;;;;;;;;;8.50;8.00;;;;;;;;3569917;39;113938;-71
2021/06/03 01:54:05;;;;;;;;;8.00;8.00;;;;;;;;3571483;39;113765;-70
2021/06/03 01:56:32;;;;;;;;;9.00;9.00;;;;;;;;3567639;39;113380;-71
2021/06/03 01:58:59;;;;;;;;;10.25;9.00;;;;;;;;3568519;39;113911;-71
2021/06/03 02:01:25;;;;;;;;;9.75;8.25;;;;;;;;3567771;39;113014;-71
2021/06/03 02:03:51;;;;;;;;;8.75;8.50;;;;;;;;3570021;39;113184;-71
2021/06/03 02:06:17;;;;;;;;;8.50;7.50;;;;;;;;3569471;39;114018;-71
2021/06/03 02:08:43;;;;;;;;;9.50;9.50;;;;;;;;3569593;39;113223;-71
2021/06/03 02:11:09;;;;;;;;;12.00;10.25;;;;;;;;3570241;39;114067;-71
2021/06/03 02:13:37;;;;;;;;;6.75;6.75;;;;;;;;3568614;39;113724;-71
2021/06/03 02:16:08;;;;;;;;;12.75;10.25;;;;;;;;3573468;39;111924;-72
2021/06/03 02:18:38;;;;;;;;;9.00;9.00;;;;;;;;3568580;39;115149;-71
2021/06/03 02:21:05;;;;;;;;;9.25;9.25;;;;;;;;3568763;39;112036;-71
2021/06/03 02:23:32;;;;;;;;;9.50;9.50;;;;;;;;3571016;39;113623;-72
2021/06/03 02:25:58;;;;;;;;;9.50;9.50;;;;;;;;3569982;39;113953;-71
2021/06/03 02:28:25;;;;;;;;;8.25;7.00;;;;;;;;3569306;39;112823;-71
2021/06/03 02:30:51;;;;;;;;;7.00;7.00;;;;;;;;3570097;39;113875;-71
2021/06/03 02:33:19;;;;;;;;;6.50;6.50;;;;;;;;3569421;39;113825;-70
2021/06/03 02:35:45;;;;;;;;;8.75;8.00;;;;;;;;3568835;39;111770;-70
2021/06/03 02:38:12;;;;;;;;;10.00;8.00;;;;;;;;3571267;39;113345;-70
2021/06/03 02:40:39;;;;;;;;;10.75;10.75;;;;;;;;3570437;39;111761;-71
2021/06/03 02:43:05;;;;;;;;;8.00;8.00;;;;;;;;3568663;39;113699;-72
2021/06/03 02:45:32;;;;;;;;;10.25;8.50;;;;;;;;3570279;39;114145;-71
2021/06/03 02:47:58;;;;;;;;;11.00;10.00;;;;;;;;3568676;39;112020;-72
2021/06/03 02:50:26;;;;;;;;;9.25;9.25;;;;;;;;3568024;39;113959;-71
2021/06/03 02:52:53;;;;;;;;;8.00;8.00;;;;;;;;3568742;39;114593;-72
2021/06/03 02:55:20;;;;;;;;;9.00;9.00;;;;;;;;3569898;39;112506;-72
2021/06/03 02:57:46;;;;;;;;;6.75;6.75;;;;;;;;3568019;39;112757;-72
2021/06/03 03:00:14;;;;;;;;;8.25;8.25;;;;;;;;3569140;39;113053;-72
2021/06/03 03:02:40;;;;;;;;;10.50;10.50;;;;;;;;3569209;39;113865;-71
2021/06/03 03:05:07;;;;;;;;;13.25;10.50;;;;;;;;3569600;39;113808;-72
2021/06/03 03:07:35;;;;;;;;;8.00;8.00;;;;;;;;3568962;39;111698;-72
2021/06/03 03:10:01;;;;;;;;;12.25;11.00;;;;;;;;3565164;39;112745;-71
2021/06/03 03:12:27;;;;;;;;;7.00;7.00;;;;;;;;3569887;39;113761;-72
2021/06/03 03:14:53;;;;;;;;;9.25;8.00;;;;;;;;3568911;39;113155;-71
2021/06/03 03:17:20;;;;;;;;;6.00;6.00;;;;;;;;3569723;39;113642;-71
2021/06/03 03:19:46;;;;;;;;;8.75;7.50;;;;;;;;3569094;39;113935;-71
2021/06/03 03:22:12;;;;;;;;;7.75;7.25;;;;;;;;3571910;39;111893;-71
2021/06/03 03:24:39;;;;;;;;;13.00;9.25;;;;;;;;3569650;39;113772;-71
2021/06/03 03:27:06;;;;;;;;;10.00;9.00;;;;;;;;3568680;39;111801;-71
2021/06/03 03:29:32;;;;;;;;;12.00;9.50;;;;;;;;3570514;39;113246;-71
2021/06/03 03:31:58;;;;;;;;;10.25;8.00;;;;;;;;3567978;39;113962;-72
2021/06/03 03:34:24;;;;;;;;;8.00;8.00;;;;;;;;3570080;39;112422;-71
2021/06/03 03:36:50;;;;;;;;;7.75;7.75;;;;;;;;3569261;39;113328;-72
2021/06/03 03:39:16;;;;;;;;;10.00;8.00;;;;;;;;3568874;39;113681;-71
2021/06/03 03:41:44;;;;;;;;;11.25;8.75;;;;;;;;3572471;39;111854;-72
2021/06/03 03:44:10;;;;;;;;;10.75;8.75;;;;;;;;3568407;39;113932;-72
2021/06/03 03:46:36;;;;;;;;;9.00;9.00;;;;;;;;3570113;39;111845;-71
2021/06/03 03:49:02;;;;;;;;;9.25;9.25;;;;;;;;3568594;39;113536;-72
2021/06/03 03:51:29;;;;;;;;;11.00;10.00;;;;;;;;3568273;39;114038;-71
2021/06/03 03:53:55;;;;;;;;;9.50;7.75;;;;;;;;3569860;39;111962;-71
2021/06/03 03:56:21;;;;;;;;;10.25;10.25;;;;;;;;3569093;39;113235;-72
2021/06/03 03:58:49;;;;;;;;;8.50;8.00;;;;;;;;3569067;39;113815;-71
2021/06/03 04:01:15;;;;;;;;;11.00;10.50;;;;;;;;3569277;39;112116;-72
2021/06/03 04:03:41;;;;;;;;;6.75;6.75;;;;;;;;3571264;39;112877;-73
2021/06/03 04:06:08;;;;;;;;;8.00;8.00;;;;;;;;3569796;39;113294;-73
2021/06/03 04:08:34;;;;;;;;;8.75;8.75;;;;;;;;3569245;39;113293;-76
2021/06/03 04:11:01;;;;;;;;;8.75;8.75;;;;;;;;3566745;39;113945;-75
2021/06/03 04:13:27;;;;;;;;;10.00;8.25;;;;;;;;3567069;39;112263;-73
2021/06/03 04:15:54;;;;;;;;;10.00;10.00;;;;;;;;3568445;39;113254;-73
2021/06/03 04:18:21;;;;;;;;;10.75;9.50;;;;;;;;3567561;39;113958;-75
2021/06/03 04:20:47;;;;;;;;;12.50;7.50;;;;;;;;3567711;39;112044;-76
2021/06/03 04:23:13;;;;;;;;;12.00;10.50;;;;;;;;3566865;39;113579;-75
2021/06/03 04:25:39;;;;;;;;;10.75;10.75;;;;;;;;3567220;39;113765;-76
2021/06/03 04:28:06;;;;;;;;;10.50;9.00;;;;;;;;3569861;39;113432;-75
2021/06/03 04:30:32;;;;;;;;;8.00;8.00;;;;;;;;3567083;39;113868;-75
2021/06/03 04:33:00;;;;;;;;;10.50;10.50;;;;;;;;3568162;39;112542;-75
2021/06/03 04:35:26;;;;;;;;;8.00;8.00;;;;;;;;3568406;39;114133;-75
2021/06/03 04:37:52;;;;;;;;;11.75;10.00;;;;;;;;3568706;39;113911;-75
2021/06/03 04:40:20;;;;;;;;;9.75;8.50;;;;;;;;3568818;39;112166;-75
2021/06/03 04:42:46;;;;;;;;;9.50;8.25;;;;;;;;3569035;39;112949;-75
2021/06/03 04:45:13;;;;;;;;;9.00;9.00;;;;;;;;3567276;39;113946;-76
2021/06/03 04:47:39;;;;;;;;;12.00;10.25;;;;;;;;3572161;39;111948;-74
2021/06/03 04:50:07;;;;;;;;;9.50;9.50;;;;;;;;3567367;39;113972;-73
2021/06/03 04:52:33;;;;;;;;;7.00;7.00;;;;;;;;3565860;39;112781;-74
2021/06/03 04:55:00;;;;;;;;;10.50;10.50;;;;;;;;3568007;39;113363;-74
2021/06/03 04:57:27;;;;;;;;;14.50;12.00;;;;;;;;3569058;39;113948;-71
2021/06/03 04:59:53;;;;;;;;;7.00;7.00;;;;;;;;3569699;39;112182;-72
2021/06/03 05:02:21;;;;;;;;;11.00;9.75;;;;;;;;3569053;39;113353;-72
2021/06/03 05:04:47;;;;;;;;;12.50;10.50;;;;;;;;3568735;39;114112;-72
2021/06/03 05:07:14;;;;;;;;;11.00;11.00;;;;;;;;3569204;39;111878;-72
2021/06/03 05:09:41;;;;;;;;;12.00;11.25;;;;;;;;3570931;39;113283;-71
2021/06/03 05:12:08;;;;;;;;;11.00;11.00;;;;;;;;3569334;39;111823;-71
2021/06/03 05:14:34;;;;;;;;;12.50;11.25;;;;;;;;3567958;39;113276;-73
2021/06/03 05:17:00;;;;;;;;;11.25;10.75;;;;;;;;3568971;39;113721;-74
2021/06/03 05:19:26;;;;;;;;;23.75;22.00;;;;;;;;3567802;39;112138;-73
2021/06/03 05:21:52;;;;;;;;;11.00;11.00;;;;;;;;3569165;39;112993;-74
2021/06/03 05:24:20;;;;;;;;;10.75;10.00;;;;;;;;3568007;39;113844;-73
2021/06/03 05:26:46;;;;;;;;;13.25;9.75;;;;;;;;3568759;39;112007;-72
2021/06/03 05:29:14;;;;;;;;;11.25;10.00;;;;;;;;3568633;39;113612;-72
2021/06/03 05:31:41;;;;;;;;;11.00;11.00;;;;;;;;3570513;39;114357;-74
2021/06/03 05:34:07;;;;;;;;;12.25;12.00;;;;;;;;3569060;39;113738;-72
2021/06/03 05:36:33;;;;;;;;;10.00;10.00;;;;;;;;3567159;39;113782;-74
2021/06/03 05:38:59;;;;;;;;;12.00;11.00;;;;;;;;3570449;39;111997;-71
2021/06/03 05:41:26;;;;;;;;;13.75;11.00;;;;;;;;3569211;39;113565;-75
2021/06/03 05:43:52;;;;;;;;;12.00;12.00;;;;;;;;3568366;39;113872;-73
2021/06/03 05:46:19;;;;;;;;;12.75;12.75;;;;;;;;3570102;39;112119;-72
2021/06/03 05:48:45;;;;;;;;;8.50;8.50;;;;;;;;3569998;39;113251;-71
2021/06/03 05:51:11;;;;;;;;;11.75;11.75;;;;;;;;3571569;39;113760;-74
2021/06/03 05:53:37;;;;;;;;;9.00;9.00;;;;;;;;3570433;39;113358;-75
2021/06/03 05:56:03;;;;;;;;;12.25;12.00;;;;;;;;3568501;39;114265;-73
2021/06/03 05:58:31;;;;;;;;;14.00;13.00;;;;;;;;3570612;39;112093;-74
2021/06/03 06:00:57;;;;;;;;;14.00;13.00;;;;;;;;3569056;39;113169;-71
2021/06/03 06:03:33;;;;;;;;;13.50;13.00;;;;;;;;3569890;39;114369;-71
2021/06/03 06:06:12;;;;;;;;;13.00;11.25;;;;;;;;3568798;39;111905;-77
2021/06/03 06:08:38;;;;;;;;;11.00;11.00;;;;;;;;3569288;39;114004;-74
2021/06/03 06:11:04;;;;;;;;;10.75;9.50;;;;;;;;3567422;39;113811;-73
2021/06/03 06:13:32;;;;;;;;;13.00;11.75;;;;;;;;3573643;39;112330;-77
2021/06/03 06:15:58;;;;;;;;;30.25;23.75;;;;;;;;3568499;39;114107;-73
2021/06/03 06:18:24;;;;;;;;;12.25;11.00;;;;;;;;3570258;39;111916;-74
2021/06/03 06:20:50;;;;;;;;;11.25;10.50;;;;;;;;3565512;39;113998;-73
2021/06/03 06:23:16;;;;;;;;;14.25;12.25;;;;;;;;3569412;39;114381;-73
2021/06/03 06:25:42;;;;;;;;;13.25;12.00;;;;;;;;3570061;39;112553;-75
2021/06/03 06:28:09;;;;;;;;;13.75;11.50;;;;;;;;3569082;39;113417;-73
2021/06/03 06:30:37;;;;;;;;;12.00;11.00;;;;;;;;3571625;39;113919;-74
2021/06/03 06:33:03;;;;;;;;;11.00;11.00;;;;;;;;3570969;39;111753;-75
2021/06/03 06:35:29;;;;;;;;;12.25;11.75;;;;;;;;3574841;39;113662;-73
2021/06/03 06:37:55;;;;;;;;;17.25;13.00;;;;;;;;3571392;39;111982;-74
2021/06/03 06:40:21;;;;;;;;;32.75;27.25;;;;;;;;3571256;39;113676;-72
2021/06/03 06:42:53;;;;;;;;;19.25;18.00;;;;;;;;3569666;39;113923;-72
2021/06/03 06:45:19;;;;;;;;;17.50;17.50;;;;;;;;3570151;39;112751;-72
2021/06/03 06:47:47;;;;;;;;;15.00;14.00;;;;;;;;3566555;39;112353;-74
2021/06/03 06:50:13;;;;;;;;;13.75;12.50;;;;;;;;3568737;39;113905;-76
2021/06/03 06:52:39;;;;;;;;;12.50;12.00;;;;;;;;3570271;39;111996;-74
2021/06/03 06:55:06;;;;;;;;;12.00;10.00;;;;;;;;3566645;39;112907;-72
2021/06/03 06:57:32;;;;;;;;;18.25;18.25;;;;;;;;3572591;39;114132;-72
2021/06/03 06:59:58;;;;;;;;;15.25;15.00;;;;;;;;3568633;39;113838;-72
2021/06/03 07:02:24;;;;;;;;;16.50;14.00;;;;;;;;3570394;39;113806;-72
2021/06/03 07:04:52;;;;;;;;;12.50;11.00;;;;;;;;3569697;39;112090;-72
2021/06/03 07:07:18;;;;;;;;;13.25;12.00;;;;;;;;3569451;39;113341;-73
2021/06/03 07:09:44;;;;;;;;;10.25;10.25;;;;;;;;3568781;39;113979;-73
2021/06/03 07:12:12;;;;;;;;;17.25;15.50;;;;;;;;3569694;39;112547;-72
2021/06/03 07:14:38;;;;;;;;;12.25;10.50;;;;;;;;3568832;39;113555;-74
2021/06/03 07:17:04;;;;;;;;;45.25;34.50;;;;;;;;3569690;39;114187;-75
2021/06/03 07:19:30;;;;;;;;;28.00;23.25;;;;;;;;3571191;39;112086;-73
2021/06/03 07:21:58;;;;;;;;;12.00;10.75;;;;;;;;3569625;39;113900;-72
2021/06/03 07:24:24;;;;;;;;;20.00;17.25;;;;;;;;3564613;39;113487;-73
2021/06/03 07:26:50;;;;;;;;;10.00;10.00;;;;;;;;3569755;39;113391;-71
2021/06/03 07:29:16;;;;;;;;;22.25;20.75;;;;;;;;3568888;39;114227;-72
2021/06/03 07:31:42;;;;;;;;;12.75;10.00;;;;;;;;3569080;39;112259;-78
2021/06/03 07:34:08;;;;;;;;;13.75;12.75;;;;;;;;3570202;39;113200;-72
2021/06/03 07:36:35;;;;;;;;;13.50;13.25;;;;;;;;3568389;39;113792;-70
2021/06/03 07:39:05;;;;;;;;;28.50;27.00;;;;;;;;3570354;39;112217;-70
2021/06/03 07:41:31;;;;;;;;;27.25;24.50;;;;;;;;3567366;39;112455;-71
2021/06/03 07:43:57;;;;;;;;;26.50;24.00;;;;;;;;3570403;39;112007;-71
2021/06/03 07:46:23;;;;;;;;;15.00;14.00;;;;;;;;3569101;39;113462;-72
2021/06/03 07:48:49;;;;;;;;;16.00;14.25;;;;;;;;3569339;39;113740;-72
2021/06/03 07:51:15;;;;;;;;;14.50;13.00;;;;;;;;3569749;39;112216;-74
2021/06/03 07:53:41;;;;;;;;;12.75;12.00;;;;;;;;3569338;39;113377;-71
2021/06/03 07:56:09;;;;;;;;;11.00;11.00;;;;;;;;3569705;39;113952;-74
2021/06/03 07:58:36;;;;;;;;;5.00;5.00;;;;;;;;3568843;39;111924;-72
2021/06/03 08:01:02;;;;;;;;;7.33;7.33;;;;;;;;3572013;39;113294;-75
2021/06/03 08:03:28;;;;;;;;;12.67;11.00;;;;;;;;3568889;39;111946;-73
2021/06/03 08:05:55;;;;;;;;;41.00;32.75;;;;;;;;3569810;39;113271;-74
2021/06/03 08:08:21;;;;;;;;;29.25;23.25;;;;;;;;3569086;39;113859;-75
2021/06/03 08:10:47;;;;;;;;;10.67;10.67;;;;;;;;3569417;39;111788;-75
2021/06/03 08:13:14;;;;;;;;;31.00;28.00;;;;;;;;3569045;39;113257;-71
2021/06/03 08:15:43;;;;;;;;;11.67;8.33;;;;;;;;3568271;39;115795;-72
2021/06/03 08:18:10;;;;;;;;;20.00;19.67;;;;;;;;3569324;39;111861;-73
2021/06/03 08:20:37;;;;;;;;;12.33;12.33;;;;;;;;3568588;39;113111;-73
2021/06/03 08:23:05;;;;;;;;;21.00;20.00;;;;;;;;3570067;39;113747;-72
2021/06/03 08:25:31;;;;;;;;;19.00;19.00;;;;;;;;3568539;39;113859;-72
2021/06/03 08:27:58;;;;;;;;;15.00;13.67;;;;;;;;3569261;39;114034;-73
2021/06/03 08:30:25;;;;;;;;;13.00;12.00;;;;;;;;3568526;39;111925;-73
2021/06/03 08:32:52;;;;;;;;;13.67;13.67;;;;;;;;3569232;39;113344;-71
2021/06/03 08:35:19;;;;;;;;;13.67;12.67;;;;;;;;3568304;39;114122;-72
2021/06/03 08:37:47;;;;;;;;;12.00;10.00;;;;;;;;3568845;39;111976;-72
2021/06/03 08:40:15;;;;;;;;;10.00;10.00;;;;;;;;3565416;39;112346;-72
2021/06/03 08:42:42;;;;;;;;;10.00;10.00;;;;;;;;3568364;39;113941;-71
2021/06/03 08:45:09;;;;;;;;;14.33;12.00;;;;;;;;3572143;39;113323;-72
2021/06/03 08:47:36;;;;;;;;;15.00;12.67;;;;;;;;3564243;39;112311;-72
2021/06/03 08:50:03;;;;;;;;;22.67;18.33;;;;;;;;3569741;39;111836;-72
2021/06/03 08:52:29;;;;;;;;;11.67;11.67;;;;;;;;3570071;39;113334;-72
2021/06/03 08:54:57;;;;;;;;;12.33;10.67;;;;;;;;3567581;39;113840;-72
2021/06/03 08:57:23;;;;;;;;;15.33;14.00;;;;;;;;3569488;39;112104;-72
2021/06/03 08:59:49;;;;;;;;;16.00;16.00;;;;;;;;3568447;39;113176;-72
2021/06/03 09:02:15;;;;;;;;;13.33;13.33;;;;;;;;3568175;39;113844;-72
2021/06/03 09:04:43;;;;;;;;;13.00;12.00;;;;;;;;3569020;39;112354;-72
2021/06/03 09:07:24;;;;;;;;;12.67;12.33;;;;;;;;3570461;39;113288;-72
2021/06/03 09:09:50;;;;;;;;;8.33;8.33;;;;;;;;3566667;39;111972;-73
2021/06/03 09:12:18;;;;;;;;;9.33;7.33;;;;;;;;3569492;39;113446;-72
2021/06/03 09:14:44;;;;;;;;;13.00;11.33;;;;;;;;3569540;39;112840;-72
2021/06/03 09:17:13;;;;;;;;;13.00;11.00;;;;;;;;3569400;39;112026;-72
2021/06/03 09:19:52;;;;;;;;;6.00;6.00;;;;;;;;3570467;39;113810;-73
2021/06/03 09:22:33;;;;;;;;;9.33;8.67;;;;;;;;3569788;39;113907;-73
2021/06/03 09:24:59;;;;;;;;;11.50;11.50;;;;;;;;3568797;39;111939;-72
2021/06/03 09:27:27;;;;;;;;;8.00;7.00;;;;;;;;3570832;39;113327;-73
2021/06/03 09:30:00;;;;;;;;;1.00;1.00;;;;;;;;3571622;39;113866;-72
2021/06/03 09:32:26;;;;;;;;;10.00;10.00;;;;;;;;3569243;39;113408;-73
2021/06/03 09:34:55;;;;;;;;;14.50;11.50;;;;;;;;3569775;39;113993;-72
2021/06/03 21:41:13;;;;;;;;;11.50;9.75;;;;;;;;3581216;39;112299;-74
2021/06/03 21:43:39;;;;;;;;;12.25;12.25;;;;;;;;3576856;39;113792;-72
2021/06/03 21:46:05;;;;;;;;;9.25;9.00;;;;;;;;3575686;39;112565;-72
2021/06/03 21:48:32;;;;;;;;;12.50;11.25;;;;;;;;3577866;39;114474;-72
2021/06/03 21:50:58;;;;;;;;;10.50;10.50;;;;;;;;3572550;39;112938;-73
2021/06/03 21:53:26;;;;;;;;;10.00;10.00;;;;;;;;3576789;39;112021;-73
2021/06/03 21:55:52;;;;;;;;;12.00;11.75;;;;;;;;3576455;39;113176;-72
2021/06/03 21:58:20;;;;;;;;;10.00;8.75;;;;;;;;3576856;39;114164;-72
2021/06/03 22:00:47;;;;;;;;;10.00;10.00;;;;;;;;3575760;39;113681;-72
2021/06/03 22:03:18;;;;;;;;;11.50;11.00;;;;;;;;3576656;39;113749;-72
2021/06/03 22:05:44;;;;;;;;;9.00;8.50;;;;;;;;3576689;39;111963;-72
2021/06/03 22:08:12;;;;;;;;;10.00;10.00;;;;;;;;3576350;39;113405;-72
2021/06/03 22:10:38;;;;;;;;;11.50;10.00;;;;;;;;3576779;39;114411;-72
2021/06/03 22:13:05;;;;;;;;;9.25;9.25;;;;;;;;3577235;39;111955;-72
2021/06/03 22:15:33;;;;;;;;;10.00;10.00;;;;;;;;3575587;39;113583;-71
2021/06/03 22:17:59;;;;;;;;;10.00;9.50;;;;;;;;3576290;39;113854;-71
2021/06/03 22:20:26;;;;;;;;;10.50;10.50;;;;;;;;3575721;39;111772;-73
2021/06/03 22:22:53;;;;;;;;;11.00;9.75;;;;;;;;3578197;39;113387;-69
2021/06/03 22:25:20;;;;;;;;;11.00;11.00;;;;;;;;3576318;39;113264;-72
2021/06/03 22:27:47;;;;;;;;;12.75;12.00;;;;;;;;3576699;39;113266;-71
2021/06/03 22:30:14;;;;;;;;;15.00;12.25;;;;;;;;3576957;39;114343;-72
2021/06/03 22:32:42;;;;;;;;;10.75;10.75;;;;;;;;3578319;39;112298;-72
2021/06/03 22:35:09;;;;;;;;;10.00;10.00;;;;;;;;3575295;39;113187;-72
2021/06/03 22:37:36;;;;;;;;;10.00;8.75;;;;;;;;3575093;39;114278;-71
2021/06/03 22:40:04;;;;;;;;;10.50;9.00;;;;;;;;3576908;39;112592;-72
2021/06/03 22:42:30;;;;;;;;;10.00;10.00;;;;;;;;3576809;39;112549;-73
2021/06/03 22:45:00;;;;;;;;;11.25;10.00;;;;;;;;3578419;39;114422;-78
2021/06/03 22:47:26;;;;;;;;;10.00;10.00;;;;;;;;3576304;39;113462;-73
2021/06/03 22:49:57;;;;;;;;;9.75;9.75;;;;;;;;3576129;39;114170;-73
2021/06/03 22:54:12;;;;;;;;;11.00;10.00;;;;;;;;3503492;39;240553;-74
2021/06/03 22:56:39;;;;;;;;;9.00;9.00;;;;;;;;3541608;39;113400;-75
2021/06/03 22:59:07;;;;;;;;;12.25;11.25;;;;;;;;3519873;39;112236;-71
2021/06/03 23:01:34;;;;;;;;;11.00;11.00;;;;;;;;3539989;39;113341;-76
2021/06/03 23:04:01;;;;;;;;;13.75;11.00;;;;;;;;3539332;39;115414;-72
2021/06/03 23:06:28;;;;;;;;;9.25;9.00;;;;;;;;3540259;39;112104;-73
2021/06/03 23:08:56;;;;;;;;;12.00;10.75;;;;;;;;3540682;39;113462;-74
2021/06/03 23:11:25;;;;;;;;;13.00;11.50;;;;;;;;3540128;39;113868;-74
2021/06/03 23:13:52;;;;;;;;;13.00;11.25;;;;;;;;3543407;39;111740;-74
2021/06/03 23:16:18;;;;;;;;;13.25;11.25;;;;;;;;3539817;39;113142;-73
2021/06/03 23:18:44;;;;;;;;;11.00;11.00;;;;;;;;3541212;39;111935;-73
2021/06/03 23:21:11;;;;;;;;;14.75;12.75;;;;;;;;3541151;39;113318;-73
2021/06/03 23:23:38;;;;;;;;;13.25;13.00;;;;;;;;3540846;39;114107;-73
2021/06/03 23:26:06;;;;;;;;;13.75;13.75;;;;;;;;3538984;39;112867;-73
2021/06/03 23:28:33;;;;;;;;;14.50;13.75;;;;;;;;3540413;39;113491;-73
2021/06/03 23:31:01;;;;;;;;;11.00;11.00;;;;;;;;3540566;39;113754;-73
2021/06/03 23:33:27;;;;;;;;;15.75;14.00;;;;;;;;3541191;39;112255;-73
2021/06/03 23:35:53;;;;;;;;;14.25;14.25;;;;;;;;3542382;39;113329;-73
2021/06/03 23:38:20;;;;;;;;;13.50;13.50;;;;;;;;3540216;39;111755;-74
2021/06/03 23:40:49;;;;;;;;;12.50;12.50;;;;;;;;3541142;39;113189;-73
2021/06/03 23:43:16;;;;;;;;;14.25;13.25;;;;;;;;3540628;39;112987;-73
2021/06/03 23:45:43;;;;;;;;;10.75;10.50;;;;;;;;3541125;39;111915;-73
2021/06/03 23:48:09;;;;;;;;;12.25;11.25;;;;;;;;3541097;39;114768;-73
2021/06/03 23:50:36;;;;;;;;;10.50;9.75;;;;;;;;3540749;39;114100;-73
2021/06/03 23:53:03;;;;;;;;;10.75;10.75;;;;;;;;3540969;39;111938;-72
2021/06/03 23:55:29;;;;;;;;;10.75;10.75;;;;;;;;3541283;39;113298;-72
2021/06/03 23:57:56;;;;;;;;;10.00;9.75;;;;;;;;3539526;39;112990;-72
